createdAt,value
2023-05-04T00:01:18.506Z,6.63
2023-05-04T00:03:46.809Z,6.55
2023-05-04T00:06:15.984Z,6.37
2023-05-04T00:08:43.936Z,6.10
2023-05-04T00:11:12.053Z,6.57
2023-05-04T00:13:39.971Z,5.95
2023-05-04T00:16:10.893Z,6.30
2023-05-04T00:18:39.202Z,6.60
2023-05-04T00:21:07.225Z,6.50
2023-05-04T00:23:35.296Z,6.50
2023-05-04T00:26:03.254Z,6.15
2023-05-04T00:28:31.165Z,6.25
2023-05-04T00:30:59.060Z,7.00
2023-05-04T00:33:28.334Z,6.77
2023-05-04T00:35:56.204Z,7.00
2023-05-04T00:38:24.104Z,7.25
2023-05-04T00:40:52.017Z,6.82
2023-05-04T00:43:19.877Z,6.97
2023-05-04T00:45:48.173Z,6.70
2023-05-04T00:48:16.540Z,7.00
2023-05-04T00:50:46.108Z,7.25
2023-05-04T00:53:14.111Z,6.75
2023-05-04T00:55:42.112Z,7.00
2023-05-04T00:58:10.091Z,7.05
2023-05-04T01:00:38.111Z,7.28
2023-05-04T01:03:06.214Z,7.38
2023-05-04T01:05:39.569Z,7.53
2023-05-04T01:08:16.200Z,7.47
2023-05-04T01:10:55.089Z,7.83
2023-05-04T01:13:23.514Z,7.80
2023-05-04T01:15:51.761Z,7.38
2023-05-04T01:18:19.715Z,7.50
2023-05-04T01:20:47.837Z,7.53
2023-05-04T01:23:17.236Z,7.47
2023-05-04T01:25:55.716Z,8.25
2023-05-04T01:28:31.515Z,7.90
2023-05-04T01:31:01.412Z,7.47
2023-05-04T01:33:30.955Z,8.80
2023-05-04T01:35:59.575Z,7.90
2023-05-04T01:38:29.504Z,8.23
2023-05-04T01:40:57.348Z,8.20
2023-05-04T01:43:25.421Z,7.70
2023-05-04T01:45:53.302Z,8.88
2023-05-04T01:48:21.213Z,7.70
2023-05-04T01:50:49.065Z,7.77
2023-05-04T01:53:16.900Z,7.80
2023-05-04T01:55:46.099Z,8.00
2023-05-04T01:58:14.046Z,8.10
2023-05-04T02:00:41.945Z,7.65
2023-05-04T02:03:10.693Z,7.50
2023-05-04T02:05:38.684Z,7.80
2023-05-04T02:08:06.932Z,8.20
2023-05-04T02:10:34.887Z,7.93
2023-05-04T02:13:04.265Z,8.13
2023-05-04T02:15:32.215Z,8.13
2023-05-04T02:18:00.112Z,7.75
2023-05-04T02:20:28.055Z,7.40
2023-05-04T02:22:55.912Z,7.85
2023-05-04T02:25:24.412Z,8.00
2023-05-04T02:27:52.393Z,7.90
2023-05-04T02:30:21.937Z,7.35
2023-05-04T02:32:49.930Z,7.40
2023-05-04T02:35:17.855Z,7.72
2023-05-04T02:37:45.781Z,7.68
2023-05-04T02:40:14.651Z,8.18
2023-05-04T02:42:42.756Z,8.07
2023-05-04T02:45:11.352Z,8.10
2023-05-04T02:47:40.661Z,7.28
2023-05-04T02:50:09.499Z,7.22
2023-05-04T02:52:37.376Z,7.53
2023-05-04T02:55:05.756Z,7.40
2023-05-04T02:57:33.714Z,7.55
2023-05-04T03:00:01.671Z,7.13
2023-05-04T03:02:29.771Z,8.07
2023-05-04T03:04:59.043Z,7.27
2023-05-04T03:07:27.451Z,7.00
2023-05-04T03:09:55.406Z,7.40
2023-05-04T03:12:23.409Z,7.63
2023-05-04T03:14:51.316Z,7.68
2023-05-04T03:17:19.215Z,7.28
2023-05-04T03:19:47.794Z,7.47
2023-05-04T03:22:16.999Z,7.00
2023-05-04T03:24:44.910Z,7.50
2023-05-04T03:27:12.959Z,7.35
2023-05-04T03:29:40.899Z,7.30
2023-05-04T03:32:08.923Z,7.45
2023-05-04T03:34:36.971Z,7.40
2023-05-04T03:37:04.855Z,6.80
2023-05-04T03:39:34.134Z,7.60
2023-05-04T03:42:02.625Z,7.03
2023-05-04T03:44:30.909Z,7.30
2023-05-04T03:46:58.750Z,7.60
2023-05-04T03:49:26.960Z,7.25
2023-05-04T03:51:54.774Z,7.20
2023-05-04T03:54:22.652Z,6.90
2023-05-04T03:56:51.876Z,6.80
2023-05-04T03:59:19.726Z,7.47
2023-05-04T04:01:47.661Z,7.23
2023-05-04T04:04:15.636Z,7.40
2023-05-04T04:06:43.669Z,6.88
2023-05-04T04:09:11.604Z,6.78
2023-05-04T04:11:39.445Z,7.50
2023-05-04T04:14:08.671Z,6.32
2023-05-04T04:16:37.456Z,7.40
2023-05-04T04:19:06.757Z,7.55
2023-05-04T04:21:34.750Z,6.80
2023-05-04T04:24:02.679Z,7.05
2023-05-04T04:26:30.528Z,7.30
2023-05-04T04:29:17.559Z,7.10
2023-05-04T04:31:45.462Z,6.85
2023-05-04T04:34:13.340Z,6.35
2023-05-04T04:36:41.306Z,7.30
2023-05-04T04:39:09.267Z,7.00
2023-05-04T04:41:37.194Z,7.17
2023-05-04T04:44:05.653Z,7.18
2023-05-04T04:46:34.963Z,7.05
2023-05-04T04:49:03.123Z,6.97
2023-05-04T04:51:31.095Z,6.70
2023-05-04T04:53:59.068Z,6.72
2023-05-04T04:56:27.011Z,7.00
2023-05-04T04:58:54.924Z,7.40
2023-05-04T05:01:22.838Z,7.40
2023-05-04T05:03:52.080Z,7.20
2023-05-04T05:06:20.709Z,7.15
2023-05-04T05:08:48.638Z,7.50
2023-05-04T05:11:16.604Z,7.10
2023-05-04T05:13:44.552Z,6.90
2023-05-04T05:16:12.397Z,6.97
2023-05-04T05:18:40.378Z,7.70
2023-05-04T05:21:10.356Z,7.22
2023-05-04T05:23:38.271Z,7.40
2023-05-04T05:26:06.507Z,7.40
2023-05-04T05:28:34.524Z,7.70
2023-05-04T05:31:02.465Z,6.88
2023-05-04T05:33:30.359Z,7.40
2023-05-04T05:35:58.408Z,7.20
2023-05-04T05:38:27.732Z,7.47
2023-05-04T05:40:55.645Z,7.60
2023-05-04T05:43:23.550Z,7.40
2023-05-04T05:45:51.505Z,7.57
2023-05-04T05:48:19.660Z,7.40
2023-05-04T05:50:47.541Z,7.80
2023-05-04T05:53:15.446Z,7.40
2023-05-04T05:55:44.678Z,7.60
2023-05-04T05:58:12.494Z,7.43
2023-05-04T06:00:40.398Z,7.82
2023-05-04T06:03:08.535Z,7.60
2023-05-04T06:05:36.461Z,7.65
2023-05-04T06:08:04.362Z,7.90
2023-05-04T06:10:32.258Z,8.10
2023-05-04T06:13:01.534Z,8.07
2023-05-04T06:15:29.479Z,8.45
2023-05-04T06:17:57.471Z,8.00
2023-05-04T06:20:25.334Z,8.30
2023-05-04T06:22:53.275Z,8.50
2023-05-04T06:25:22.137Z,8.40
2023-05-04T06:27:50.159Z,9.07
2023-05-04T06:30:19.657Z,8.20
2023-05-04T06:32:47.742Z,8.30
2023-05-04T06:35:15.733Z,9.10
2023-05-04T06:37:43.615Z,8.40
2023-05-04T06:40:12.456Z,8.75
2023-05-04T06:42:40.687Z,8.82
2023-05-04T06:45:09.356Z,9.00
2023-05-04T06:47:38.931Z,8.55
2023-05-04T06:50:10.647Z,8.30
2023-05-04T06:52:40.933Z,8.50
2023-05-04T06:55:09.459Z,8.90
2023-05-04T06:57:37.554Z,8.38
2023-05-04T07:00:06.919Z,8.82
2023-05-04T07:02:34.996Z,8.90
2023-05-04T07:05:04.437Z,8.38
2023-05-04T07:07:32.410Z,8.20
2023-05-04T07:10:00.351Z,8.80
2023-05-04T07:12:28.335Z,8.73
2023-05-04T07:14:56.684Z,8.73
2023-05-04T07:17:25.551Z,8.30
2023-05-04T07:19:53.660Z,8.73
2023-05-04T07:22:22.945Z,9.20
2023-05-04T07:24:50.788Z,9.20
2023-05-04T07:27:18.688Z,8.40
2023-05-04T07:29:47.185Z,8.40
2023-05-04T07:32:15.110Z,8.40
2023-05-04T07:34:46.311Z,8.70
2023-05-04T07:37:15.664Z,8.50
2023-05-04T07:39:45.077Z,8.60
2023-05-04T07:42:13.272Z,8.60
2023-05-04T07:44:41.943Z,8.65
2023-05-04T07:47:09.850Z,8.50
2023-05-04T07:49:37.771Z,8.48
2023-05-04T07:52:06.055Z,9.10
2023-05-04T07:54:33.995Z,8.90
2023-05-04T07:57:04.758Z,8.53
2023-05-04T07:59:32.959Z,8.60
2023-05-04T08:02:00.924Z,8.60
2023-05-04T08:04:28.980Z,8.25
2023-05-04T08:06:56.914Z,7.82
2023-05-04T08:09:24.781Z,8.80
2023-05-04T08:11:53.274Z,8.10
2023-05-04T08:14:22.901Z,8.50
2023-05-04T08:16:50.850Z,8.10
2023-05-04T08:19:20.350Z,7.70
2023-05-04T08:21:48.450Z,8.88
2023-05-04T08:24:17.265Z,7.70
2023-05-04T08:26:47.397Z,7.30
2023-05-04T08:29:25.095Z,7.50
2023-05-04T08:31:55.905Z,7.05
2023-05-04T08:34:23.900Z,7.00
2023-05-04T08:36:52.678Z,7.60
2023-05-04T08:39:20.747Z,7.15
2023-05-04T08:41:48.721Z,8.05
2023-05-04T08:44:18.684Z,7.30
2023-05-04T08:46:52.320Z,7.10
2023-05-04T08:49:20.768Z,6.50
2023-05-04T08:51:50.411Z,7.13
2023-05-04T08:54:19.885Z,7.00
2023-05-04T08:56:47.995Z,8.05
2023-05-04T08:59:21.445Z,7.88
2023-05-04T09:01:55.531Z,7.15
2023-05-04T09:04:25.152Z,8.10
2023-05-04T09:06:54.965Z,7.13
2023-05-04T09:09:23.394Z,7.50
2023-05-04T09:11:51.257Z,6.50
2023-05-04T09:14:19.336Z,6.50
2023-05-04T09:16:47.286Z,6.78
2023-05-04T09:19:20.367Z,6.63
2023-05-04T09:21:49.324Z,6.70
2023-05-04T09:24:27.481Z,5.93
2023-05-04T09:26:55.588Z,6.83
2023-05-04T09:29:25.587Z,7.10
2023-05-04T09:31:55.482Z,6.20
2023-05-04T09:34:25.690Z,6.70
2023-05-04T09:37:00.636Z,6.43
2023-05-04T09:39:29.087Z,5.70
2023-05-04T09:41:57.537Z,5.30
2023-05-04T09:44:29.474Z,6.03
2023-05-04T09:46:59.431Z,5.60
2023-05-04T09:49:35.973Z,5.30
2023-05-04T09:52:05.261Z,5.10
2023-05-04T09:54:36.300Z,5.60
2023-05-04T09:57:12.125Z,5.50
2023-05-04T09:59:40.222Z,5.22
2023-05-04T10:02:18.655Z,5.43
2023-05-04T10:04:51.639Z,5.70
2023-05-04T10:07:20.822Z,5.93
2023-05-04T10:09:51.219Z,6.00
2023-05-04T10:12:19.392Z,5.25
2023-05-04T10:14:47.679Z,5.90
2023-05-04T10:17:22.341Z,5.70
2023-05-04T10:20:05.561Z,5.20
2023-05-04T10:22:45.781Z,5.40
2023-05-04T10:25:41.879Z,4.90
2023-05-04T10:28:20.344Z,4.80
2023-05-04T10:30:48.429Z,5.22
2023-05-04T10:33:16.407Z,4.60
2023-05-04T10:35:55.575Z,4.65
2023-05-04T10:38:33.341Z,4.83
2023-05-04T10:41:01.258Z,5.18
2023-05-04T10:43:30.101Z,5.28
2023-05-04T10:45:58.739Z,4.68
2023-05-04T10:48:36.126Z,5.05
2023-05-04T10:51:05.652Z,5.35
2023-05-04T10:53:34.253Z,5.90
2023-05-04T10:56:02.809Z,5.40
2023-05-04T10:58:30.930Z,5.57
2023-05-04T11:00:58.811Z,4.60
2023-05-04T11:03:28.052Z,5.60
2023-05-04T11:05:56.106Z,5.25
2023-05-04T11:08:26.582Z,5.30
2023-05-04T11:11:03.076Z,4.70
2023-05-04T11:13:31.986Z,5.60
2023-05-04T11:16:00.307Z,4.90
2023-05-04T11:18:30.846Z,4.80
2023-05-04T11:20:59.482Z,4.10
2023-05-04T11:23:29.048Z,4.30
2023-05-04T11:25:57.358Z,4.53
2023-05-04T11:28:34.544Z,4.80
2023-05-04T11:31:03.784Z,4.20
2023-05-04T11:33:31.999Z,4.80
2023-05-04T11:36:02.308Z,4.10
2023-05-04T11:38:31.882Z,4.60
2023-05-04T11:40:59.891Z,4.40
2023-05-04T11:43:27.994Z,4.60
2023-05-04T11:45:59.417Z,5.10
2023-05-04T11:48:27.982Z,5.00
2023-05-04T11:50:56.602Z,4.57
2023-05-04T11:53:24.533Z,4.90
2023-05-04T11:55:54.516Z,4.70
2023-05-04T11:58:26.840Z,5.18
2023-05-04T12:00:58.727Z,5.70
2023-05-04T12:03:43.214Z,5.97
2023-05-04T12:06:16.167Z,5.68
2023-05-04T12:08:44.241Z,5.65
2023-05-04T12:11:16.293Z,6.00
2023-05-04T12:13:46.085Z,6.00
2023-05-04T12:16:15.801Z,6.00
2023-05-04T12:18:45.337Z,5.82
2023-05-04T12:21:14.589Z,5.97
2023-05-04T12:23:43.244Z,6.32
2023-05-04T12:26:11.822Z,6.18
2023-05-04T12:28:42.501Z,6.38
2023-05-04T12:31:10.755Z,6.60
2023-05-04T12:33:38.756Z,6.45
2023-05-04T12:36:07.647Z,7.45
2023-05-04T12:38:35.700Z,6.60
2023-05-04T12:41:04.448Z,6.85
2023-05-04T12:43:33.188Z,6.55
2023-05-04T12:46:02.466Z,6.43
2023-05-04T12:48:32.791Z,7.07
2023-05-04T12:51:01.978Z,6.80
2023-05-04T12:53:32.057Z,6.90
2023-05-04T12:56:01.387Z,6.30
2023-05-04T12:58:30.410Z,6.72
2023-05-04T13:00:58.944Z,6.00
2023-05-04T13:03:28.380Z,6.80
2023-05-04T13:05:57.749Z,7.20
2023-05-04T13:08:25.715Z,6.90
2023-05-04T13:10:53.616Z,6.38
2023-05-04T13:13:26.207Z,6.50
2023-05-04T13:15:54.332Z,6.90
2023-05-04T13:18:26.794Z,7.60
2023-05-04T13:20:56.311Z,7.10
2023-05-04T13:23:24.622Z,7.32
2023-05-04T13:25:53.171Z,6.53
2023-05-04T13:28:21.106Z,7.20
2023-05-04T13:30:49.241Z,6.77
2023-05-04T13:33:28.737Z,7.03
2023-05-04T13:35:59.172Z,6.93
2023-05-04T13:38:27.238Z,7.78
2023-05-04T13:40:55.291Z,8.65
2023-05-04T13:43:23.510Z,6.73
2023-05-04T13:45:51.941Z,7.45
2023-05-04T13:48:19.887Z,6.82
2023-05-04T13:50:47.720Z,7.80
2023-05-04T13:53:16.889Z,7.10
2023-05-04T13:55:45.401Z,8.40
2023-05-04T13:58:13.302Z,8.25
2023-05-04T14:00:41.209Z,7.77
2023-05-04T14:03:09.305Z,7.10
2023-05-04T14:05:37.260Z,7.60
2023-05-04T14:08:05.290Z,7.93
2023-05-04T14:10:35.476Z,7.40
2023-05-04T14:13:05.286Z,7.03
2023-05-04T14:15:33.275Z,8.57
2023-05-04T14:18:01.263Z,7.00
2023-05-04T14:20:29.231Z,7.05
2023-05-04T14:22:57.152Z,7.70
2023-05-04T14:25:25.066Z,8.10
2023-05-04T14:27:54.296Z,8.10
2023-05-04T14:30:22.427Z,7.60
2023-05-04T14:32:54.185Z,8.73
2023-05-04T14:35:22.337Z,8.20
2023-05-04T14:37:50.702Z,7.38
2023-05-04T14:40:18.741Z,7.80
2023-05-04T14:42:47.131Z,9.85
2023-05-04T14:45:17.175Z,9.45
2023-05-04T14:47:45.437Z,8.85
2023-05-04T14:50:14.130Z,8.60
2023-05-04T14:52:42.123Z,7.82
2023-05-04T14:55:10.812Z,7.87
2023-05-04T14:57:38.751Z,8.10
2023-05-04T15:00:09.350Z,7.78
2023-05-04T15:02:39.460Z,7.50
2023-05-04T15:05:10.220Z,7.20
2023-05-04T15:07:38.181Z,7.80
2023-05-04T15:10:08.110Z,8.05
2023-05-04T15:12:37.659Z,6.90
2023-05-04T15:15:06.565Z,6.78
2023-05-04T15:17:35.157Z,7.10
2023-05-04T15:20:05.266Z,7.50
2023-05-04T15:22:33.606Z,7.70
2023-05-04T15:25:01.793Z,7.60
2023-05-04T15:27:29.718Z,7.55
2023-05-04T15:29:57.965Z,8.38
2023-05-04T15:32:25.991Z,8.27
2023-05-04T15:35:04.436Z,8.00
2023-05-04T15:37:35.441Z,7.47
2023-05-04T15:40:04.660Z,8.07
2023-05-04T15:42:32.985Z,7.38
2023-05-04T15:45:01.207Z,7.95
2023-05-04T15:47:29.186Z,7.10
2023-05-04T15:49:57.238Z,7.30
2023-05-04T15:52:25.396Z,6.45
2023-05-04T15:54:54.706Z,6.97
2023-05-04T15:57:22.849Z,7.53
2023-05-04T15:59:50.719Z,6.85
2023-05-04T16:02:18.652Z,7.68
2023-05-04T16:04:46.590Z,6.80
2023-05-04T16:07:14.578Z,6.78
2023-05-04T16:09:42.498Z,7.50
2023-05-04T16:12:11.814Z,7.78
2023-05-04T16:14:39.757Z,6.77
2023-05-04T16:17:08.144Z,7.53
2023-05-04T16:19:36.357Z,7.03
2023-05-04T16:22:04.273Z,7.27
2023-05-04T16:24:32.352Z,7.30
2023-05-04T16:27:00.903Z,7.22
2023-05-04T16:29:30.166Z,9.45
2023-05-04T16:31:58.098Z,8.77
2023-05-04T16:34:26.073Z,7.93
2023-05-04T16:36:54.034Z,7.07
2023-05-04T16:39:22.092Z,6.50
2023-05-04T16:41:49.962Z,6.43
2023-05-04T16:44:17.816Z,6.68
2023-05-04T16:46:47.081Z,6.40
2023-05-04T16:49:15.065Z,7.25
2023-05-04T16:51:43.325Z,6.80
2023-05-04T16:54:11.302Z,8.00
2023-05-04T16:56:39.281Z,7.55
2023-05-04T16:59:07.217Z,7.33
2023-05-04T17:01:35.629Z,7.40
2023-05-04T17:04:05.003Z,7.40
2023-05-04T17:06:33.032Z,7.45
2023-05-04T17:09:00.922Z,7.72
2023-05-04T17:11:28.796Z,6.80
2023-05-04T17:13:56.949Z,7.90
2023-05-04T17:16:24.868Z,7.60
2023-05-04T17:18:52.770Z,7.47
2023-05-04T17:21:22.194Z,7.43
2023-05-04T17:23:50.221Z,7.20
2023-05-04T17:26:18.230Z,7.50
2023-05-04T17:28:46.077Z,7.43
2023-05-04T17:31:14.011Z,7.28
2023-05-04T17:33:42.020Z,7.10
2023-05-04T17:36:12.121Z,7.20
2023-05-04T17:38:41.943Z,8.02
2023-05-04T17:41:10.674Z,9.80
2023-05-04T17:43:38.898Z,8.57
2023-05-04T17:46:06.980Z,8.97
2023-05-04T17:48:36.326Z,8.48
2023-05-04T17:51:04.696Z,8.25
2023-05-04T17:53:32.673Z,8.40
2023-05-04T17:56:01.868Z,8.60
2023-05-04T17:58:29.784Z,8.65
2023-05-04T18:00:57.684Z,8.75
2023-05-04T18:03:25.643Z,8.30
2023-05-04T18:05:53.617Z,8.25
2023-05-04T18:08:21.567Z,7.80
2023-05-04T18:10:50.364Z,8.75
2023-05-04T18:13:19.601Z,8.80
2023-05-04T18:15:47.563Z,7.70
2023-05-04T18:18:15.823Z,8.38
2023-05-04T18:20:43.690Z,8.07
2023-05-04T18:23:11.603Z,8.48
2023-05-04T18:25:39.539Z,8.50
2023-05-04T18:28:08.385Z,8.30
2023-05-04T18:30:37.724Z,8.38
2023-05-04T18:33:05.770Z,8.27
2023-05-04T18:35:33.692Z,8.80
2023-05-04T18:38:01.628Z,7.85
2023-05-04T18:40:31.620Z,8.30
2023-05-04T18:42:59.551Z,7.40
2023-05-04T18:45:27.866Z,7.97
2023-05-04T18:47:57.235Z,8.60
2023-05-04T18:50:25.296Z,8.33
2023-05-04T18:52:54.077Z,8.90
2023-05-04T18:55:22.284Z,8.20
2023-05-04T18:57:50.565Z,8.20
2023-05-04T19:00:18.528Z,8.25
2023-05-04T19:02:46.418Z,8.60
2023-05-04T19:05:15.906Z,8.90
2023-05-04T19:07:43.854Z,8.80
2023-05-04T19:10:12.523Z,8.80
2023-05-04T19:12:40.382Z,9.20
2023-05-04T19:15:09.338Z,7.90
2023-05-04T19:17:37.325Z,9.70
2023-05-04T19:20:06.292Z,8.48
2023-05-04T19:22:35.744Z,8.60
2023-05-04T19:25:04.105Z,8.55
2023-05-04T19:27:32.078Z,8.23
2023-05-04T19:29:59.946Z,8.63
2023-05-04T19:32:28.542Z,8.25
2023-05-04T19:34:56.425Z,8.55
2023-05-04T19:37:24.264Z,8.27
2023-05-04T19:39:53.549Z,9.27
2023-05-04T19:42:21.421Z,8.70
2023-05-04T19:44:49.334Z,8.20
2023-05-04T19:47:17.993Z,9.00
2023-05-04T19:49:47.601Z,8.97
2023-05-04T19:52:15.531Z,8.55
2023-05-04T19:54:43.720Z,8.05
2023-05-04T19:57:13.031Z,8.60
2023-05-04T19:59:41.086Z,8.88
2023-05-04T20:02:09.110Z,8.40
2023-05-04T20:04:37.062Z,8.30
2023-05-04T20:07:05.365Z,8.10
2023-05-04T20:09:33.288Z,7.82
2023-05-04T20:12:01.746Z,8.40
2023-05-04T20:14:31.316Z,8.32
2023-05-04T20:16:59.348Z,7.55
2023-05-04T20:19:27.452Z,7.70
2023-05-04T20:21:55.336Z,8.13
2023-05-04T20:24:23.330Z,7.50
2023-05-04T20:26:51.231Z,7.70
2023-05-04T20:29:19.275Z,7.00
2023-05-04T20:31:48.530Z,7.73
2023-05-04T20:34:18.308Z,6.67
2023-05-04T20:36:47.192Z,7.60
2023-05-04T20:39:15.745Z,7.37
2023-05-04T20:41:43.657Z,8.25
2023-05-04T20:44:11.639Z,7.78
2023-05-04T20:46:40.374Z,7.28
2023-05-04T20:49:10.003Z,7.87
2023-05-04T20:51:38.085Z,7.80
2023-05-04T20:54:06.031Z,7.72
2023-05-04T20:56:34.014Z,6.65
2023-05-04T20:59:01.933Z,7.13
2023-05-04T21:01:30.662Z,7.50
2023-05-04T21:03:58.823Z,7.43
2023-05-04T21:06:28.258Z,7.15
2023-05-04T21:08:56.935Z,7.47
2023-05-04T21:11:24.829Z,7.80
2023-05-04T21:13:52.854Z,7.50
2023-05-04T21:16:20.902Z,6.97
2023-05-04T21:18:48.890Z,6.90
2023-05-04T21:21:16.994Z,6.90
2023-05-04T21:23:46.279Z,6.13
2023-05-04T21:26:14.142Z,6.45
2023-05-04T21:28:42.064Z,6.25
2023-05-04T21:31:10.193Z,6.70
2023-05-04T21:33:38.108Z,6.45
2023-05-04T21:36:13.692Z,6.90
2023-05-04T21:38:41.924Z,5.88
2023-05-04T21:41:15.423Z,6.10
2023-05-04T21:43:44.290Z,6.70
2023-05-04T21:46:12.780Z,6.18
2023-05-04T21:48:40.916Z,6.03
2023-05-04T21:51:09.046Z,5.90
2023-05-04T21:53:36.964Z,6.15
2023-05-04T21:56:08.263Z,5.43
2023-05-04T21:58:39.563Z,5.88
2023-05-04T22:01:08.024Z,6.38
2023-05-04T22:03:36.388Z,6.78
2023-05-04T22:06:04.787Z,7.25
2023-05-04T22:08:32.731Z,6.28
2023-05-04T22:11:01.349Z,6.22
2023-05-04T22:13:29.262Z,6.43
2023-05-04T22:15:58.515Z,6.70
2023-05-04T22:18:26.384Z,6.90
2023-05-04T22:20:54.366Z,6.55
2023-05-04T22:23:22.360Z,5.88
2023-05-04T22:25:50.198Z,5.95
2023-05-04T22:28:18.111Z,8.50
2023-05-04T22:30:46.223Z,8.70
2023-05-04T22:33:15.491Z,8.10
2023-05-04T22:35:43.695Z,8.52
2023-05-04T22:38:11.977Z,8.20
2023-05-04T22:40:40.544Z,7.93
2023-05-04T22:43:08.655Z,7.80
2023-05-04T22:45:36.839Z,7.70
2023-05-04T22:48:04.898Z,7.65
2023-05-04T22:50:34.380Z,6.90
2023-05-04T22:53:02.507Z,7.20
2023-05-04T22:55:30.474Z,8.07
2023-05-04T22:57:58.389Z,8.00
2023-05-04T23:00:26.491Z,7.53
2023-05-04T23:02:54.423Z,7.40
2023-05-04T23:05:22.686Z,7.53
2023-05-04T23:07:52.952Z,8.40
2023-05-04T23:10:21.237Z,7.95
2023-05-04T23:12:49.222Z,6.80
2023-05-04T23:15:17.986Z,6.97
2023-05-04T23:17:45.908Z,6.72
2023-05-04T23:20:14.329Z,7.15
2023-05-04T23:22:42.185Z,8.50
2023-05-04T23:25:11.813Z,7.68
2023-05-04T23:27:39.879Z,7.32
2023-05-04T23:30:09.692Z,6.95
2023-05-04T23:32:37.913Z,7.85
2023-05-04T23:35:06.614Z,7.70
2023-05-04T23:37:34.485Z,8.38
2023-05-04T23:40:02.652Z,7.73
2023-05-04T23:42:31.848Z,8.68
2023-05-04T23:44:59.724Z,8.68
2023-05-04T23:47:27.595Z,10.00
2023-05-04T23:49:55.428Z,9.48
2023-05-04T23:52:23.333Z,10.30
2023-05-04T23:54:54.464Z,10.40
2023-05-04T23:57:22.363Z,12.48
2023-05-04T23:59:53.026Z,11.70
